ASY541 KSRQ-KBTV
Flight info
| Callsign | ASY541 |
|---|---|
| Flight time | N/A |
| Altitude | 39000 |
| Route | TIDES1 CAMJO PUPYY PETTO PELTS ARMEL LAAYK BTV |
| Aircraft | F35/M-SDILOTUVY/C |
Departure
| Time | N/A |
|---|---|
| Airport | Sarasota Bradenton International Airport (KSRQ) |
Arrival
| Time | 2026-05-07 07:15 |
|---|---|
| Airport | Patrick Leahy Burlington International Airport (KBTV) |
| Time | Latitude | Longitude | Altitude | Speed | Heading |
|---|---|---|---|---|---|
| 2026-05-07 06:53 | 41.58731 | -75.39086 | 24380 ft | 571 kts | 15° |
| 2026-05-07 06:53 | 41.62605 | -75.36767 | 25130 ft | 639 kts | 15° |
| 2026-05-07 06:54 | 41.66690 | -75.34160 | 25878 ft | 660 kts | 21° |
| 2026-05-07 06:54 | 41.70653 | -75.30984 | 26632 ft | 667 kts | 23° |
| 2026-05-07 06:54 | 41.74673 | -75.27941 | 27418 ft | 660 kts | 18° |
| 2026-05-07 06:54 | 41.78652 | -75.24993 | 28207 ft | 664 kts | 21° |
| 2026-05-07 06:55 | 41.82650 | -75.21921 | 29034 ft | 661 kts | 19° |
| 2026-05-07 06:55 | 41.86696 | -75.18914 | 29894 ft | 662 kts | 19° |
| 2026-05-07 06:55 | 41.90696 | -75.15854 | 30637 ft | 662 kts | 19° |
| 2026-05-07 06:55 | 41.94700 | -75.12837 | 31371 ft | 658 kts | 18° |
| 2026-05-07 06:56 | 41.98677 | -75.09817 | 32128 ft | 656 kts | 18° |
| 2026-05-07 06:56 | 42.02646 | -75.06796 | 32892 ft | 653 kts | 18° |
| 2026-05-07 06:56 | 42.06597 | -75.03798 | 33702 ft | 651 kts | 17° |
| 2026-05-07 06:56 | 42.10532 | -75.00794 | 34433 ft | 648 kts | 17° |
| 2026-05-07 06:57 | 42.14447 | -74.97813 | 35151 ft | 644 kts | 18° |
| 2026-05-07 06:57 | 42.18336 | -74.94837 | 35891 ft | 640 kts | 18° |
| 2026-05-07 06:57 | 42.22209 | -74.91875 | 36663 ft | 636 kts | 18° |
| 2026-05-07 06:57 | 42.26043 | -74.88938 | 37454 ft | 633 kts | 18° |
| 2026-05-07 06:58 | 42.29828 | -74.86037 | 37664 ft | 638 kts | 19° |
| 2026-05-07 06:58 | 42.33715 | -74.83048 | 36899 ft | 646 kts | 19° |
| 2026-05-07 06:58 | 42.37635 | -74.80025 | 36151 ft | 650 kts | 19° |
| 2026-05-07 06:58 | 42.41580 | -74.76993 | 35427 ft | 654 kts | 19° |
| 2026-05-07 06:59 | 42.45540 | -74.73931 | 34724 ft | 658 kts | 18° |
| 2026-05-07 06:59 | 42.49541 | -74.70841 | 34038 ft | 663 kts | 18° |
| 2026-05-07 06:59 | 42.53510 | -74.67770 | 33257 ft | 666 kts | 19° |
| 2026-05-07 06:59 | 42.57534 | -74.64649 | 32499 ft | 668 kts | 19° |
| 2026-05-07 07:00 | 42.61590 | -74.61501 | 31746 ft | 671 kts | 19° |
| 2026-05-07 07:00 | 42.65654 | -74.58340 | 30994 ft | 673 kts | 20° |
| 2026-05-07 07:00 | 42.69732 | -74.55163 | 30273 ft | 675 kts | 20° |
| 2026-05-07 07:00 | 42.73804 | -74.51988 | 29488 ft | 676 kts | 21° |
| 2026-05-07 07:01 | 42.77882 | -74.48802 | 28664 ft | 676 kts | 21° |
| 2026-05-07 07:01 | 42.81966 | -74.45607 | 27858 ft | 675 kts | 21° |
| 2026-05-07 07:01 | 42.86040 | -74.42414 | 27085 ft | 675 kts | 22° |
| 2026-05-07 07:01 | 42.90110 | -74.39220 | 26333 ft | 674 kts | 22° |
| 2026-05-07 07:02 | 42.94166 | -74.36032 | 25598 ft | 672 kts | 23° |
| 2026-05-07 07:02 | 42.98219 | -74.32842 | 24885 ft | 671 kts | 24° |
| 2026-05-07 07:02 | 43.02208 | -74.29697 | 24193 ft | 670 kts | 24° |
| 2026-05-07 07:02 | 43.06254 | -74.26502 | 23504 ft | 669 kts | 24° |
| 2026-05-07 07:03 | 43.10278 | -74.23319 | 22681 ft | 668 kts | 25° |
| 2026-05-07 07:03 | 43.14307 | -74.20128 | 21877 ft | 668 kts | 25° |
| 2026-05-07 07:03 | 43.18332 | -74.16935 | 21094 ft | 669 kts | 25° |
| 2026-05-07 07:03 | 43.22360 | -74.13735 | 20342 ft | 669 kts | 25° |
| 2026-05-07 07:04 | 43.26396 | -74.10523 | 19587 ft | 670 kts | 26° |
| 2026-05-07 07:04 | 43.30428 | -74.07311 | 18884 ft | 669 kts | 26° |
| 2026-05-07 07:04 | 43.34410 | -74.04129 | 18223 ft | 653 kts | 26° |
| 2026-05-07 07:04 | 43.38302 | -74.01015 | 17435 ft | 642 kts | 27° |
| 2026-05-07 07:05 | 43.42080 | -73.97715 | 16643 ft | 641 kts | 29° |
| 2026-05-07 07:05 | 43.45854 | -73.94493 | 15885 ft | 636 kts | 27° |
| 2026-05-07 07:05 | 43.49576 | -73.91310 | 15149 ft | 625 kts | 29° |
| 2026-05-07 07:05 | 43.53240 | -73.88133 | 14411 ft | 617 kts | 28° |
| 2026-05-07 07:06 | 43.56883 | -73.85019 | 13692 ft | 614 kts | 28° |
| 2026-05-07 07:06 | 43.60404 | -73.81967 | 12916 ft | 593 kts | 29° |
| 2026-05-07 07:06 | 43.63841 | -73.79002 | 12138 ft | 574 kts | 29° |
| 2026-05-07 07:06 | 43.67234 | -73.76076 | 11452 ft | 603 kts | 30° |
| 2026-05-07 07:07 | 43.70946 | -73.72856 | 11117 ft | 642 kts | 30° |
| 2026-05-07 07:07 | 43.74739 | -73.69559 | 11047 ft | 642 kts | 30° |
| 2026-05-07 07:07 | 43.78523 | -73.66279 | 11023 ft | 641 kts | 30° |
| 2026-05-07 07:07 | 43.82307 | -73.62981 | 11009 ft | 641 kts | 30° |
| 2026-05-07 07:08 | 43.84803 | -73.60806 | 11015 ft | 641 kts | 30° |
| 2026-05-07 07:08 | 43.88580 | -73.57515 | 10797 ft | 643 kts | 30° |
| 2026-05-07 07:08 | 43.92370 | -73.54202 | 10047 ft | 643 kts | 31° |
| 2026-05-07 07:08 | 43.96145 | -73.50899 | 9282 ft | 639 kts | 31° |
| 2026-05-07 07:09 | 43.99902 | -73.47607 | 8492 ft | 639 kts | 31° |
| 2026-05-07 07:09 | 44.03661 | -73.44307 | 7724 ft | 638 kts | 31° |
| 2026-05-07 07:09 | 44.07399 | -73.41022 | 6973 ft | 636 kts | 31° |
| 2026-05-07 07:09 | 44.11136 | -73.37732 | 6213 ft | 635 kts | 31° |
| 2026-05-07 07:10 | 44.14872 | -73.34439 | 5464 ft | 633 kts | 31° |
| 2026-05-07 07:10 | 44.18593 | -73.31152 | 4680 ft | 633 kts | 32° |
| 2026-05-07 07:10 | 44.22002 | -73.28138 | 3997 ft | 634 kts | 32° |
| 2026-05-07 07:10 | 44.25728 | -73.24837 | 3202 ft | 636 kts | 31° |
| 2026-05-07 07:11 | 44.29461 | -73.21528 | 2702 ft | 635 kts | 32° |
| 2026-05-07 07:11 | 44.33133 | -73.18265 | 2489 ft | 628 kts | 32° |
| 2026-05-07 07:11 | 44.36327 | -73.15420 | 2425 ft | 480 kts | 31° |
| 2026-05-07 07:11 | 44.39098 | -73.13750 | 2413 ft | 398 kts | 9° |
| 2026-05-07 07:12 | 44.41642 | -73.13702 | 2434 ft | 341 kts | 349° |
| 2026-05-07 07:12 | 44.43810 | -73.13405 | 2007 ft | 309 kts | 22° |
| 2026-05-07 07:12 | 44.45598 | -73.12517 | 1949 ft | 242 kts | 330° |
| 2026-05-07 07:12 | 44.47227 | -73.15114 | 798 ft | 464 kts | 322° |
| 2026-05-07 07:13 | 44.48435 | -73.13501 | 1058 ft | 272 kts | 133° |
| 2026-05-07 07:13 | 44.47376 | -73.11600 | 1208 ft | 224 kts | 128° |
| 2026-05-07 07:13 | 44.46491 | -73.10071 | 1334 ft | 186 kts | 141° |
| 2026-05-07 07:13 | 44.45414 | -73.10175 | 1031 ft | 179 kts | 226° |
| 2026-05-07 07:14 | 44.45224 | -73.11802 | 769 ft | 172 kts | 290° |
| 2026-05-07 07:14 | 44.45910 | -73.13086 | 527 ft | 163 kts | 308° |
| 2026-05-07 07:14 | 44.46638 | -73.14269 | 352 ft | 150 kts | 308° |
| 2026-05-07 07:14 | 44.47260 | -73.15274 | 325 ft | 120 kts | 308° |
| 2026-05-07 07:15 | 44.47683 | -73.15964 | 317 ft | 73 kts | 311° |
| 2026-05-07 07:15 | 44.47967 | -73.16416 | 317 ft | 51 kts | 315° |
| 2026-05-07 07:15 | 44.48097 | -73.16451 | 317 ft | 17 kts | 118° |
| 2026-05-07 07:15 | 44.48058 | -73.16224 | 317 ft | 26 kts | 97° |
| 2026-05-07 07:16 | 44.47966 | -73.16021 | 317 ft | 25 kts | 124° |
| 2026-05-07 07:16 | 44.47866 | -73.15846 | 318 ft | 16 kts | 127° |
| 2026-05-07 07:16 | 44.47776 | -73.15686 | 318 ft | 25 kts | 128° |
| 2026-05-07 07:16 | 44.47597 | -73.15374 | 319 ft | 49 kts | 129° |
| 2026-05-07 07:17 | 44.47438 | -73.15113 | 319 ft | 24 kts | 131° |
| 2026-05-07 07:17 | 44.47355 | -73.14986 | 319 ft | 20 kts | 132° |
| 2026-05-07 07:17 | 44.47249 | -73.14817 | 319 ft | 25 kts | 132° |
| 2026-05-07 07:17 | 44.47148 | -73.14653 | 318 ft | 14 kts | 131° |
| 2026-05-07 07:18 | 44.47158 | -73.14577 | 318 ft | 11 kts | 34° |
| 2026-05-07 07:18 | 44.47219 | -73.14556 | 318 ft | 9 kts | 314° |
| 2026-05-07 07:18 | 44.47273 | -73.14644 | 318 ft | 13 kts | 312° |
| 2026-05-07 07:18 | 44.47281 | -73.14712 | 318 ft | 11 kts | 219° |
| 2026-05-07 07:19 | 44.47275 | -73.14719 | 318 ft | 0 kts | 220° |